createdAt,value
2023-04-03T00:00:44.582Z,6.15
2023-04-03T00:03:12.157Z,5.98
2023-04-03T00:05:39.362Z,5.89
2023-04-03T00:08:08.921Z,5.97
2023-04-03T00:10:37.939Z,5.97
2023-04-03T00:13:06.375Z,5.91
2023-04-03T00:15:33.859Z,5.97
2023-04-03T00:18:02.339Z,6.03
2023-04-03T00:20:29.707Z,6.10
2023-04-03T00:22:56.928Z,6.06
2023-04-03T00:25:24.722Z,6.21
2023-04-03T00:27:51.949Z,6.30
2023-04-03T00:30:21.226Z,6.32
2023-04-03T00:32:50.198Z,6.41
2023-04-03T00:35:18.125Z,6.26
2023-04-03T00:37:46.026Z,6.21
2023-04-03T00:40:15.372Z,6.32
2023-04-03T00:42:43.732Z,6.25
2023-04-03T00:45:16.700Z,6.29
2023-04-03T00:47:44.458Z,6.21
2023-04-03T00:50:11.955Z,6.13
2023-04-03T00:52:40.040Z,6.15
2023-04-03T00:55:09.680Z,6.13
2023-04-03T00:57:37.440Z,6.08
2023-04-03T01:00:10.958Z,6.02
2023-04-03T01:02:38.481Z,6.14
2023-04-03T01:05:07.228Z,5.91
2023-04-03T01:07:38.189Z,5.90
2023-04-03T01:10:10.516Z,5.89
2023-04-03T01:12:39.828Z,5.94
2023-04-03T01:15:16.860Z,5.91
2023-04-03T01:17:45.679Z,5.92
2023-04-03T01:20:22.749Z,5.97
2023-04-03T01:23:14.372Z,6.07
2023-04-03T01:25:47.415Z,6.10
2023-04-03T01:28:24.338Z,6.19
2023-04-03T01:31:16.338Z,6.14
2023-04-03T01:33:44.543Z,5.93
2023-04-03T01:36:26.652Z,5.76
2023-04-03T01:38:55.412Z,5.81
2023-04-03T01:41:23.706Z,5.87
2023-04-03T01:43:51.436Z,5.78
2023-04-03T01:46:19.380Z,5.86
2023-04-03T01:48:47.015Z,5.71
2023-04-03T01:51:14.173Z,5.74
2023-04-03T01:53:41.327Z,5.83
2023-04-03T01:56:09.277Z,5.85
2023-04-03T01:58:36.415Z,5.89
2023-04-03T02:01:04.314Z,5.93
2023-04-03T02:03:31.985Z,5.93
2023-04-03T02:05:59.478Z,5.77
2023-04-03T02:08:27.060Z,5.81
2023-04-03T02:10:54.500Z,5.81
2023-04-03T02:13:21.620Z,5.82
2023-04-03T02:15:48.790Z,5.77
2023-04-03T02:18:17.363Z,5.77
2023-04-03T02:20:44.524Z,5.72
2023-04-03T02:23:11.971Z,5.65
2023-04-03T02:25:39.363Z,5.82
2023-04-03T02:28:06.880Z,5.61
2023-04-03T02:30:34.240Z,5.75
2023-04-03T02:33:01.811Z,5.77
2023-04-03T02:35:29.313Z,5.75
2023-04-03T02:37:57.020Z,5.78
2023-04-03T02:40:24.832Z,5.65
2023-04-03T02:42:51.960Z,5.42
2023-04-03T02:45:19.392Z,5.42
2023-04-03T02:47:46.861Z,5.21
2023-04-03T02:50:14.168Z,5.15
2023-04-03T02:52:41.938Z,5.34
2023-04-03T02:55:09.767Z,5.36
2023-04-03T02:57:37.063Z,5.29
2023-04-03T03:00:04.888Z,5.40
2023-04-03T03:02:32.618Z,5.23
2023-04-03T03:04:59.875Z,5.28
2023-04-03T03:07:27.191Z,5.18
2023-04-03T03:09:54.720Z,5.21
2023-04-03T03:12:22.807Z,5.22
2023-04-03T03:14:50.658Z,5.23
2023-04-03T03:17:18.332Z,5.28
2023-04-03T03:19:46.814Z,5.23
2023-04-03T03:22:14.017Z,5.30
2023-04-03T03:24:41.497Z,5.19
2023-04-03T03:27:09.872Z,5.17
2023-04-03T03:29:37.172Z,5.08
2023-04-03T03:32:05.574Z,5.10
2023-04-03T03:34:32.798Z,5.17
2023-04-03T03:37:00.382Z,5.18
2023-04-03T03:39:29.230Z,5.10
2023-04-03T03:41:57.605Z,5.09
2023-04-03T03:44:24.927Z,5.03
2023-04-03T03:46:53.667Z,5.01
2023-04-03T03:49:20.920Z,5.00
2023-04-03T03:51:48.271Z,5.07
2023-04-03T03:54:15.738Z,4.94
2023-04-03T03:56:42.884Z,4.97
2023-04-03T03:59:12.924Z,5.00
2023-04-03T04:01:41.043Z,5.00
2023-04-03T04:04:08.973Z,5.23
2023-04-03T04:06:36.798Z,5.20
2023-04-03T04:09:04.394Z,5.31
2023-04-03T04:11:33.462Z,4.92
2023-04-03T04:14:01.081Z,5.16
2023-04-03T04:16:29.296Z,5.12
2023-04-03T04:18:57.257Z,5.00
2023-04-03T04:21:24.871Z,4.85
2023-04-03T04:23:52.486Z,4.69
2023-04-03T04:26:21.231Z,4.71
2023-04-03T04:28:48.577Z,4.79
2023-04-03T04:31:17.511Z,4.53
2023-04-03T04:33:44.995Z,4.30
2023-04-03T04:36:12.517Z,4.21
2023-04-03T04:38:39.938Z,4.28
2023-04-03T04:41:07.904Z,4.40
2023-04-03T04:43:35.671Z,4.41
2023-04-03T04:46:08.280Z,4.32
2023-04-03T04:48:36.949Z,4.16
2023-04-03T04:51:04.709Z,4.21
2023-04-03T04:53:32.111Z,4.31
2023-04-03T04:55:59.914Z,4.18
2023-04-03T04:58:27.414Z,4.16
2023-04-03T05:01:02.104Z,4.14
2023-04-03T05:03:30.628Z,4.16
2023-04-03T05:05:58.597Z,4.23
2023-04-03T05:08:26.252Z,4.24
2023-04-03T05:10:56.016Z,4.07
2023-04-03T05:13:25.170Z,4.11
2023-04-03T05:15:52.535Z,4.11
2023-04-03T05:18:20.423Z,4.05
2023-04-03T05:20:50.432Z,4.09
2023-04-03T05:23:18.794Z,4.15
2023-04-03T05:25:47.988Z,4.29
2023-04-03T05:28:15.799Z,4.45
2023-04-03T05:30:43.053Z,4.52
2023-04-03T05:33:10.594Z,4.58
2023-04-03T05:35:42.508Z,4.61
2023-04-03T05:38:11.129Z,4.43
2023-04-03T05:40:39.194Z,4.32
2023-04-03T05:43:06.948Z,4.28
2023-04-03T05:45:35.536Z,4.37
2023-04-03T05:48:02.901Z,4.45
2023-04-03T05:50:31.239Z,4.46
2023-04-03T05:53:00.241Z,4.44
2023-04-03T05:55:27.850Z,4.36
2023-04-03T05:57:55.599Z,4.49
2023-04-03T06:00:23.566Z,4.45
2023-04-03T06:02:52.816Z,4.43
2023-04-03T06:05:20.947Z,4.34
2023-04-03T06:07:50.462Z,4.48
2023-04-03T06:10:18.536Z,4.57
2023-04-03T06:12:46.271Z,4.58
2023-04-03T06:15:14.456Z,4.51
2023-04-03T06:17:41.980Z,4.48
2023-04-03T06:20:10.388Z,4.51
2023-04-03T06:22:37.895Z,4.55
2023-04-03T06:25:06.086Z,4.71
2023-04-03T06:27:33.196Z,4.73
2023-04-03T06:30:00.344Z,4.79
2023-04-03T06:32:27.864Z,4.88
2023-04-03T06:34:55.053Z,4.90
2023-04-03T06:37:23.961Z,5.03
2023-04-03T06:39:51.584Z,5.12
2023-04-03T06:42:19.158Z,5.17
2023-04-03T06:44:46.428Z,5.45
2023-04-03T06:47:15.282Z,5.30
2023-04-03T06:49:42.686Z,5.45
2023-04-03T06:52:10.858Z,5.56
2023-04-03T06:54:38.783Z,5.61
2023-04-03T06:57:06.427Z,5.71
2023-04-03T06:59:33.816Z,5.90
2023-04-03T07:02:01.632Z,6.09
2023-04-03T07:04:28.858Z,6.15
2023-04-03T07:06:56.012Z,5.90
2023-04-03T07:09:23.536Z,5.97
2023-04-03T07:11:50.686Z,6.11
2023-04-03T07:14:17.836Z,6.02
2023-04-03T07:16:45.386Z,6.16
2023-04-03T07:19:12.820Z,6.29
2023-04-03T07:21:40.094Z,6.34
2023-04-03T07:24:08.957Z,6.33
2023-04-03T07:26:38.584Z,6.16
2023-04-03T07:29:05.725Z,6.12
2023-04-03T07:31:33.123Z,6.23
2023-04-03T07:34:00.202Z,6.30
2023-04-03T07:36:27.293Z,6.51
2023-04-03T07:38:54.693Z,6.43
2023-04-03T07:41:22.147Z,6.57
2023-04-03T07:43:50.811Z,6.67
2023-04-03T07:46:18.691Z,6.76
2023-04-03T07:48:46.163Z,6.82
2023-04-03T07:51:14.062Z,6.91
2023-04-03T07:53:41.956Z,7.21
2023-04-03T07:56:10.415Z,7.47
2023-04-03T07:58:38.082Z,7.60
2023-04-03T08:01:05.535Z,7.73
2023-04-03T08:03:33.326Z,7.90
2023-04-03T08:06:06.186Z,8.00
2023-04-03T08:08:36.374Z,7.91
2023-04-03T08:11:03.867Z,7.69
2023-04-03T08:13:31.856Z,7.76
2023-04-03T08:16:00.197Z,7.93
2023-04-03T08:18:27.759Z,7.97
2023-04-03T08:20:54.861Z,8.04
2023-04-03T08:23:22.324Z,7.98
2023-04-03T08:25:49.478Z,8.18
2023-04-03T08:28:16.628Z,8.04
2023-04-03T08:30:44.731Z,8.24
2023-04-03T08:33:11.899Z,8.33
2023-04-03T08:35:41.736Z,8.42
2023-04-03T08:38:10.444Z,8.47
2023-04-03T08:40:38.069Z,8.26
2023-04-03T08:43:26.146Z,8.33
2023-04-03T08:45:56.554Z,8.56
2023-04-03T08:48:37.807Z,8.50
2023-04-03T08:51:13.860Z,8.41
2023-04-03T08:53:43.395Z,8.32
2023-04-03T08:56:11.365Z,8.40
2023-04-03T08:58:53.781Z,8.40
2023-04-03T09:01:26.008Z,8.34
2023-04-03T09:03:53.239Z,8.35
2023-04-03T09:06:23.512Z,8.35
2023-04-03T09:09:16.847Z,8.40
2023-04-03T09:12:10.976Z,8.23
2023-04-03T09:14:46.998Z,8.30
2023-04-03T09:17:42.701Z,8.51
2023-04-03T09:20:13.008Z,8.59
2023-04-03T09:22:51.404Z,8.97
2023-04-03T09:25:36.924Z,9.20
2023-04-03T09:28:04.606Z,9.90
2023-04-03T09:30:31.895Z,9.87
2023-04-03T09:32:59.634Z,10.19
2023-04-03T09:35:44.807Z,10.08
2023-04-03T09:38:14.414Z,9.77
2023-04-03T09:41:03.764Z,9.72
2023-04-03T09:43:33.073Z,9.93
2023-04-03T09:46:27.574Z,10.31
2023-04-03T09:49:09.340Z,10.76
2023-04-03T09:51:37.880Z,11.31
2023-04-03T09:54:31.607Z,11.46
2023-04-03T09:57:05.244Z,12.11
2023-04-03T09:59:32.864Z,11.95
2023-04-03T10:02:12.394Z,12.14
2023-04-03T10:04:41.652Z,11.95
2023-04-03T10:07:54.496Z,11.89
2023-04-03T10:10:26.868Z,11.69
2023-04-03T10:13:20.690Z,11.24
2023-04-03T10:15:51.519Z,11.48
2023-04-03T10:18:29.586Z,11.18
2023-04-03T10:21:03.635Z,11.55
2023-04-03T10:23:36.826Z,12.13
2023-04-03T10:26:14.705Z,12.32
2023-04-03T10:29:23.077Z,12.77
2023-04-03T10:32:04.224Z,12.64
2023-04-03T10:34:38.327Z,12.63
2023-04-03T10:37:19.817Z,12.04
2023-04-03T10:40:03.630Z,11.60
2023-04-03T10:42:45.842Z,11.23
2023-04-03T10:45:42.610Z,11.52
2023-04-03T10:48:24.201Z,11.68
2023-04-03T10:51:16.217Z,11.56
2023-04-03T10:54:12.825Z,11.21
2023-04-03T10:56:43.163Z,11.11
2023-04-03T10:59:13.788Z,11.07
2023-04-03T11:01:43.664Z,10.99
2023-04-03T11:04:12.609Z,10.67
2023-04-03T11:06:49.501Z,10.33
2023-04-03T11:09:29.894Z,10.50
2023-04-03T11:12:02.849Z,10.42
2023-04-03T11:14:33.105Z,10.33
2023-04-03T11:17:24.422Z,10.39
2023-04-03T11:20:01.563Z,10.20
2023-04-03T11:22:39.547Z,10.20
2023-04-03T11:25:20.980Z,10.26
2023-04-03T11:27:57.667Z,10.42
2023-04-03T11:30:40.372Z,10.31
2023-04-03T11:33:20.845Z,9.98
2023-04-03T11:35:52.240Z,9.82
2023-04-03T11:38:27.598Z,9.78
2023-04-03T11:40:56.489Z,9.41
2023-04-03T11:43:23.644Z,9.33
2023-04-03T11:45:55.969Z,9.46
2023-04-03T11:48:29.541Z,9.29
2023-04-03T11:50:57.745Z,9.36
2023-04-03T11:53:38.567Z,9.32
2023-04-03T11:56:24.367Z,9.49
2023-04-03T11:59:11.717Z,9.37
2023-04-03T12:01:48.835Z,9.41
2023-04-03T12:04:18.794Z,9.64
2023-04-03T12:06:46.104Z,9.75
2023-04-03T12:09:35.877Z,9.72
2023-04-03T12:12:49.095Z,9.53
2023-04-03T12:15:20.919Z,9.51
2023-04-03T12:17:48.669Z,9.34
2023-04-03T12:20:48.249Z,9.25
2023-04-03T12:23:24.507Z,9.29
2023-04-03T12:25:52.746Z,9.47
2023-04-03T12:28:21.343Z,9.33
2023-04-03T12:30:48.802Z,9.43
2023-04-03T12:33:37.768Z,9.34
2023-04-03T12:36:13.806Z,9.42
2023-04-03T12:39:03.615Z,9.61
2023-04-03T12:41:52.855Z,9.59
2023-04-03T12:44:35.280Z,9.76
2023-04-03T12:47:03.910Z,9.69
2023-04-03T12:49:31.179Z,9.73
2023-04-03T12:51:58.457Z,9.92
2023-04-03T12:54:40.840Z,9.81
2023-04-03T12:57:20.399Z,9.85
2023-04-03T12:59:48.685Z,9.76
2023-04-03T13:02:34.842Z,9.58
2023-04-03T13:05:08.295Z,9.59
2023-04-03T13:07:39.813Z,9.53
2023-04-03T13:10:07.832Z,9.51
2023-04-03T13:12:55.565Z,9.62
2023-04-03T13:15:30.564Z,9.67
2023-04-03T13:17:58.233Z,9.84
2023-04-03T13:20:34.051Z,9.95
2023-04-03T13:23:06.088Z,9.92
2023-04-03T13:25:35.840Z,9.90
2023-04-03T13:28:13.497Z,9.98
2023-04-03T13:30:56.034Z,9.87
2023-04-03T13:33:27.777Z,9.90
2023-04-03T13:36:05.436Z,10.11
2023-04-03T13:38:34.819Z,10.20
2023-04-03T13:41:06.374Z,10.09
2023-04-03T13:43:36.596Z,10.12
2023-04-03T13:46:12.782Z,10.28
2023-04-03T13:48:52.241Z,10.45
2023-04-03T13:51:24.016Z,10.18
2023-04-03T13:53:56.055Z,10.30
2023-04-03T13:56:39.635Z,10.34
2023-04-03T13:59:12.493Z,10.22
2023-04-03T14:02:17.466Z,10.18
2023-04-03T14:04:45.046Z,9.97
2023-04-03T14:07:16.991Z,9.94
2023-04-03T14:09:44.546Z,10.09
2023-04-03T14:12:37.232Z,10.14
2023-04-03T14:15:16.320Z,10.18
2023-04-03T14:17:43.693Z,10.04
2023-04-03T14:20:19.694Z,9.85
2023-04-03T14:22:47.286Z,9.87
2023-04-03T14:25:14.735Z,9.86
2023-04-03T14:27:45.092Z,9.73
2023-04-03T14:30:18.695Z,9.72
2023-04-03T14:32:46.518Z,9.71
2023-04-03T14:35:14.285Z,9.62
2023-04-03T14:37:41.840Z,9.75
2023-04-03T14:40:12.750Z,9.85
2023-04-03T14:42:39.844Z,9.89
2023-04-03T14:45:10.529Z,9.89
2023-04-03T14:47:42.679Z,9.68
2023-04-03T14:50:15.681Z,9.42
2023-04-03T14:52:44.024Z,9.35
2023-04-03T14:55:21.265Z,9.18
2023-04-03T14:57:49.645Z,9.27
2023-04-03T15:00:19.483Z,9.35
2023-04-03T15:02:48.896Z,9.27
2023-04-03T15:05:16.979Z,9.42
2023-04-03T15:07:50.390Z,9.29
2023-04-03T15:10:26.624Z,9.21
2023-04-03T15:12:54.450Z,9.05
2023-04-03T15:15:23.173Z,8.98
2023-04-03T15:17:55.631Z,8.91
2023-04-03T15:20:25.755Z,8.80
2023-04-03T15:22:53.162Z,8.69
2023-04-03T15:25:20.632Z,8.78
2023-04-03T15:27:48.068Z,8.86
2023-04-03T15:30:18.346Z,8.84
2023-04-03T15:32:45.642Z,8.82
2023-04-03T15:35:13.159Z,8.73
2023-04-03T15:37:40.364Z,8.69
2023-04-03T15:40:08.276Z,8.77
2023-04-03T15:42:35.825Z,8.65
2023-04-03T15:45:03.093Z,8.57
2023-04-03T15:47:30.319Z,8.53
2023-04-03T15:49:57.808Z,8.48
2023-04-03T15:52:25.183Z,8.45
2023-04-03T15:54:52.374Z,8.31
2023-04-03T15:57:20.029Z,8.27
2023-04-03T15:59:47.463Z,8.32
2023-04-03T16:02:14.799Z,8.36
2023-04-03T16:04:42.412Z,8.11
2023-04-03T16:07:09.797Z,8.07
2023-04-03T16:09:37.087Z,8.01
2023-04-03T16:12:04.835Z,7.99
2023-04-03T16:14:32.136Z,8.05
2023-04-03T16:17:00.836Z,7.97
2023-04-03T16:19:28.536Z,7.93
2023-04-03T16:21:56.047Z,7.90
2023-04-03T16:24:23.476Z,7.94
2023-04-03T16:26:51.077Z,7.81
2023-04-03T16:29:18.247Z,7.90
2023-04-03T16:31:45.666Z,7.82
2023-04-03T16:34:13.481Z,7.82
2023-04-03T16:36:40.762Z,7.74
2023-04-03T16:39:10.536Z,7.79
2023-04-03T16:41:37.998Z,7.80
2023-04-03T16:44:05.297Z,7.83
2023-04-03T16:46:32.477Z,7.73
2023-04-03T16:48:59.844Z,7.75
2023-04-03T16:51:27.243Z,7.68
2023-04-03T16:53:54.462Z,7.63
2023-04-03T16:56:23.100Z,7.56
2023-04-03T16:58:50.378Z,7.66
2023-04-03T17:01:19.495Z,7.66
2023-04-03T17:03:47.197Z,7.51
2023-04-03T17:06:18.424Z,7.52
2023-04-03T17:08:47.155Z,7.44
2023-04-03T17:11:28.127Z,7.52
2023-04-03T17:13:55.282Z,7.54
2023-04-03T17:16:23.452Z,7.52
2023-04-03T17:18:50.881Z,7.47
2023-04-03T17:21:18.201Z,7.46
2023-04-03T17:23:48.633Z,7.41
2023-04-03T17:26:15.982Z,7.50
2023-04-03T17:28:44.790Z,7.50
2023-04-03T17:31:13.380Z,7.46
2023-04-03T17:33:40.629Z,7.52
2023-04-03T17:36:08.252Z,7.50
2023-04-03T17:38:36.057Z,7.57
2023-04-03T17:41:06.227Z,7.67
2023-04-03T17:43:33.882Z,7.93
2023-04-03T17:46:07.171Z,7.87
2023-04-03T17:48:35.670Z,7.70
2023-04-03T17:51:12.065Z,8.19
2023-04-03T17:53:41.673Z,8.53
2023-04-03T17:56:10.926Z,8.87
2023-04-03T17:58:38.148Z,9.17
2023-04-03T18:01:22.479Z,9.24
2023-04-03T18:03:51.012Z,8.96
2023-04-03T18:06:19.637Z,9.23
2023-04-03T18:08:59.383Z,9.45
2023-04-03T18:11:28.135Z,8.62
2023-04-03T18:13:58.199Z,8.33
2023-04-03T18:16:26.604Z,8.32
2023-04-03T18:19:06.584Z,8.85
2023-04-03T18:21:41.983Z,9.01
2023-04-03T18:24:12.685Z,9.11
2023-04-03T18:26:41.553Z,9.22
2023-04-03T18:29:10.768Z,9.11
2023-04-03T18:31:38.547Z,9.11
2023-04-03T18:34:05.809Z,9.43
2023-04-03T18:36:33.259Z,9.31
2023-04-03T18:39:00.428Z,9.13
2023-04-03T18:41:30.128Z,8.55
2023-04-03T18:43:59.007Z,8.39
2023-04-03T18:46:26.208Z,8.02
2023-04-03T18:48:54.227Z,7.86
2023-04-03T18:51:22.033Z,8.10
2023-04-03T18:53:49.141Z,8.38
2023-04-03T18:56:16.621Z,8.75
2023-04-03T18:58:44.066Z,8.77
2023-04-03T19:01:12.029Z,8.88
2023-04-03T19:03:39.277Z,8.81
2023-04-03T19:06:07.199Z,8.92
2023-04-03T19:08:34.642Z,8.99
2023-04-03T19:11:01.857Z,8.98
2023-04-03T19:13:29.288Z,8.53
2023-04-03T19:15:59.069Z,7.66
2023-04-03T19:18:27.043Z,7.20
2023-04-03T19:20:56.429Z,7.29
2023-04-03T19:23:24.477Z,7.23
2023-04-03T19:25:59.470Z,7.13
2023-04-03T19:28:27.200Z,7.01
2023-04-03T19:30:54.472Z,6.72
2023-04-03T19:33:21.588Z,6.30
2023-04-03T19:35:48.992Z,6.31
2023-04-03T19:38:16.492Z,6.19
2023-04-03T19:40:44.056Z,6.13
2023-04-03T19:43:12.593Z,5.96
2023-04-03T19:45:40.954Z,5.94
2023-04-03T19:48:08.584Z,5.96
2023-04-03T19:50:36.055Z,6.05
2023-04-03T19:53:03.238Z,5.74
2023-04-03T19:55:31.587Z,5.60
2023-04-03T19:57:59.854Z,5.79
2023-04-03T20:00:28.651Z,5.71
2023-04-03T20:02:56.809Z,5.59
2023-04-03T20:05:24.714Z,5.52
2023-04-03T20:07:52.616Z,5.64
2023-04-03T20:10:20.362Z,5.46
2023-04-03T20:12:47.879Z,5.33
2023-04-03T20:15:15.005Z,5.17
2023-04-03T20:17:42.460Z,5.30
2023-04-03T20:20:10.244Z,5.64
2023-04-03T20:22:39.003Z,6.08
2023-04-03T20:25:09.588Z,5.84
2023-04-03T20:27:36.824Z,5.44
2023-04-03T20:30:08.710Z,5.06
2023-04-03T20:32:36.155Z,5.01
2023-04-03T20:35:04.693Z,5.34
2023-04-03T20:37:32.513Z,5.49
2023-04-03T20:40:00.462Z,5.54
2023-04-03T20:42:27.734Z,5.23
2023-04-03T20:44:57.285Z,5.27
2023-04-03T20:47:25.081Z,4.92
2023-04-03T20:49:53.696Z,4.99
2023-04-03T20:52:21.066Z,4.86
2023-04-03T20:54:48.492Z,4.80
2023-04-03T20:57:15.634Z,4.86
2023-04-03T20:59:43.867Z,4.92
2023-04-03T21:02:11.429Z,4.81
2023-04-03T21:04:47.184Z,5.26
2023-04-03T21:07:53.247Z,5.69
2023-04-03T21:10:59.139Z,5.47
2023-04-03T21:14:05.493Z,5.75
2023-04-03T21:16:32.866Z,5.04
2023-04-03T21:19:08.680Z,4.76
2023-04-03T21:21:39.570Z,4.45
2023-04-03T21:24:09.946Z,4.35
2023-04-03T21:26:38.691Z,4.43
2023-04-03T21:29:07.385Z,4.47
2023-04-03T21:31:47.872Z,4.53
2023-04-03T21:34:16.165Z,4.52
2023-04-03T21:36:44.676Z,4.47
2023-04-03T21:39:12.348Z,4.49
2023-04-03T21:41:39.637Z,4.46
2023-04-03T21:44:07.164Z,4.48
2023-04-03T21:46:34.487Z,4.58
2023-04-03T21:49:01.836Z,4.49
2023-04-03T21:51:29.390Z,4.42
2023-04-03T21:53:57.394Z,4.58
2023-04-03T21:56:24.657Z,5.23
2023-04-03T21:58:52.297Z,4.89
2023-04-03T22:01:20.583Z,4.90
2023-04-03T22:03:48.137Z,4.80
2023-04-03T22:06:16.426Z,4.75
2023-04-03T22:08:43.857Z,4.55
2023-04-03T22:11:15.670Z,4.51
2023-04-03T22:13:43.828Z,4.56
2023-04-03T22:16:12.704Z,4.75
2023-04-03T22:18:39.867Z,5.02
2023-04-03T22:21:09.833Z,4.92
2023-04-03T22:23:37.809Z,5.25
2023-04-03T22:26:07.435Z,5.31
2023-04-03T22:28:39.250Z,5.13
2023-04-03T22:31:08.103Z,5.33
2023-04-03T22:33:39.291Z,5.52
2023-04-03T22:36:08.783Z,5.29
2023-04-03T22:38:37.073Z,5.29
2023-04-03T22:41:06.457Z,5.53
2023-04-03T22:43:36.457Z,5.39
2023-04-03T22:46:06.624Z,5.21
2023-04-03T22:48:34.651Z,4.90
2023-04-03T22:51:07.222Z,5.17
2023-04-03T22:53:35.680Z,5.15
2023-04-03T22:56:11.085Z,4.55
2023-04-03T22:58:39.106Z,4.57
2023-04-03T23:01:11.354Z,4.85
2023-04-03T23:03:40.370Z,4.96
2023-04-03T23:06:08.808Z,4.58
2023-04-03T23:08:38.971Z,4.53
2023-04-03T23:11:09.886Z,4.66
2023-04-03T23:13:37.462Z,4.53
2023-04-03T23:16:05.235Z,4.26
2023-04-03T23:18:33.081Z,4.09
2023-04-03T23:21:01.789Z,4.19
2023-04-03T23:23:29.124Z,4.20
2023-04-03T23:25:59.133Z,4.22
2023-04-03T23:28:27.735Z,4.00
2023-04-03T23:31:02.834Z,3.87
2023-04-03T23:33:31.776Z,3.88
2023-04-03T23:36:00.778Z,3.82
2023-04-03T23:38:28.304Z,3.92
2023-04-03T23:40:55.891Z,3.79
2023-04-03T23:43:23.071Z,3.66
2023-04-03T23:45:50.578Z,3.72
2023-04-03T23:48:18.053Z,3.62
2023-04-03T23:50:45.170Z,3.75
2023-04-03T23:53:15.140Z,3.75
2023-04-03T23:55:42.902Z,3.75
2023-04-03T23:58:10.904Z,3.85
